Time;durP1;ratioP1;P1;durP2;ratioP2;P2;SDS_P1;SDS_P2;PMS_P1;PMS_P2;Temp;Humidity;BMP_temperature;BMP_pressure;BME280_temperature;BME280_humidity;BME280_pressure;Samples;Min_cycle;Max_cycle;Signal;HPM_P1;HPM_P2
2021/12/13 00:01:00;;;;;;;2.43;2.30;;;6.70;99.90;;;6.85;98.89;101762.25;5014694;28;21011;-64
2021/12/13 00:03:54;;;;;;;2.97;2.73;;;6.70;99.90;;;6.87;99.08;101760.44;5014519;28;20668;-64
2021/12/13 00:06:34;;;;;;;2.70;2.50;;;6.70;99.90;;;6.93;98.05;101765.38;5030787;28;20624;-65
2021/12/13 00:09:14;;;;;;;2.30;2.10;;;6.80;99.90;;;6.92;98.52;101765.44;5014459;28;20726;-64
2021/12/13 00:11:58;;;;;;;3.60;2.20;;;6.80;99.90;;;6.91;98.82;101764.59;5015062;28;21029;-64
2021/12/13 00:14:39;;;;;;;3.30;1.87;;;6.70;99.90;;;6.89;98.75;101765.56;5028336;28;21203;-64
2021/12/13 00:17:27;;;;;;;2.07;1.90;;;6.80;99.90;;;6.90;98.33;101762.03;5031180;28;20632;-64
2021/12/13 00:20:06;;;;;;;4.50;2.37;;;6.70;99.90;;;6.96;98.65;101767.00;4993797;28;20605;-64
2021/12/13 00:22:39;;;;;;;3.23;2.20;;;6.80;99.90;;;6.93;97.66;101764.53;5012996;28;20637;-64
2021/12/13 00:25:15;;;;;;;2.00;1.80;;;6.80;99.90;;;6.91;98.93;101769.78;5015180;28;20612;-64
2021/12/13 00:27:54;;;;;;;3.20;2.33;;;6.70;99.90;;;6.90;98.19;101768.06;5030575;28;21192;-64
2021/12/13 00:30:52;;;;;;;2.07;1.87;;;6.70;99.90;;;6.93;98.33;101764.53;5014033;28;20728;-64
2021/12/13 00:34:25;;;;;;;4.90;2.57;;;6.80;99.90;;;6.98;97.78;101770.38;5030646;28;20692;-64
2021/12/13 00:37:08;;;;;;;4.03;2.20;;;6.80;99.90;;;7.00;98.66;101769.44;5020685;28;20632;-64
2021/12/13 00:39:57;;;;;;;4.07;2.07;;;6.80;99.90;;;7.00;98.12;101773.78;5032200;28;20631;-64
2021/12/13 00:42:33;;;;;;;2.70;2.27;;;6.80;99.90;;;7.00;98.32;101779.81;5030673;28;20717;-64
2021/12/13 00:45:06;;;;;;;1.80;1.70;;;6.80;99.90;;;6.99;98.03;101766.88;5030889;28;20678;-64
2021/12/13 00:47:38;;;;;;;2.47;2.07;;;6.80;99.90;;;7.03;97.98;101777.06;5028612;28;20720;-64
2021/12/13 00:50:21;;;;;;;1.90;1.80;;;6.90;99.90;;;7.05;97.00;101777.88;5011692;28;21263;-64
2021/12/13 00:52:50;;;;;;;4.17;2.77;;;6.90;99.90;;;6.98;97.24;101778.19;5029852;28;20687;-63
2021/12/13 00:55:26;;;;;;;3.07;2.50;;;6.80;99.90;;;6.96;98.25;101783.41;4997345;28;21074;-63
2021/12/13 00:58:10;;;;;;;2.30;2.20;;;6.80;99.90;;;6.94;97.89;101787.00;5030161;28;20623;-63
2021/12/13 01:00:57;;;;;;;8.50;2.60;;;6.80;99.90;;;6.97;97.54;101786.84;5013420;28;20728;-64
2021/12/13 01:03:36;;;;;;;2.33;2.17;;;6.80;99.90;;;6.91;98.41;101787.09;5030432;28;20640;-64
2021/12/13 01:06:57;;;;;;;3.07;2.77;;;6.70;99.90;;;6.95;98.73;101778.28;5012664;28;20727;-64
2021/12/13 01:10:20;;;;;;;4.80;2.37;;;6.80;99.90;;;6.96;98.74;101792.97;4993640;28;20681;-64
2021/12/13 01:12:50;;;;;;;2.30;2.20;;;6.70;99.90;;;6.98;97.94;101783.38;5026926;28;21026;-64
2021/12/13 01:15:34;;;;;;;2.13;2.03;;;6.80;99.90;;;6.98;98.74;101796.34;5031023;28;21180;-64
2021/12/13 01:18:29;;;;;;;2.57;2.37;;;6.80;99.90;;;6.96;98.53;101787.78;5007990;28;20689;-64
2021/12/13 01:21:15;;;;;;;2.60;2.37;;;6.80;99.90;;;6.99;98.76;101792.81;5014864;28;20621;-64
2021/12/13 01:23:52;;;;;;;3.00;2.03;;;6.80;99.90;;;7.01;98.55;101796.19;5010647;28;20652;-64
2021/12/13 01:26:48;;;;;;;2.53;2.33;;;6.80;99.90;;;6.98;98.18;101788.56;5029750;28;20620;-64
2021/12/13 01:29:27;;;;;;;5.73;2.70;;;6.80;99.90;;;6.99;98.12;101803.19;5024879;28;20699;-64
2021/12/13 01:32:05;;;;;;;4.10;2.73;;;6.80;99.90;;;7.00;97.44;101800.56;5016888;28;20682;-64
2021/12/13 01:34:36;;;;;;;5.33;2.23;;;6.80;99.90;;;7.00;98.16;101803.16;5012093;28;20624;-64
2021/12/13 01:39:50;;;;;;;2.57;2.37;;;6.80;99.90;;;6.98;97.65;101806.72;5029937;28;20617;-64
2021/12/13 01:42:29;;;;;;;2.70;2.50;;;6.80;99.90;;;7.00;98.20;101802.31;5029783;28;20662;-64
2021/12/13 01:45:02;;;;;;;2.73;2.53;;;6.80;99.90;;;6.99;97.99;101811.00;5031116;28;21171;-64
2021/12/13 01:47:38;;;;;;;6.40;2.60;;;6.80;99.90;;;6.97;98.10;101815.41;5029514;28;20636;-64
2021/12/13 01:50:18;;;;;;;2.77;2.57;;;6.80;99.90;;;6.98;98.00;101811.91;5029888;28;20640;-64
2021/12/13 01:52:50;;;;;;;3.40;2.47;;;6.80;99.90;;;6.97;97.45;101813.66;5029814;28;20664;-65
2021/12/13 01:55:27;;;;;;;3.70;2.73;;;6.80;99.90;;;6.98;97.76;101806.72;5028784;28;21445;-64
2021/12/13 02:01:11;;;;;;;3.40;3.10;;;6.80;99.90;;;6.97;97.25;101811.06;5021982;28;20662;-64
2021/12/13 02:04:05;;;;;;;4.10;2.50;;;6.80;99.90;;;6.98;97.10;101819.69;5011939;28;20739;-64
2021/12/13 02:06:35;;;;;;;3.00;2.27;;;6.80;99.90;;;6.96;97.07;101811.13;5029179;28;20638;-64
2021/12/13 02:09:17;;;;;;;2.63;2.40;;;6.80;99.90;;;6.96;97.06;101814.53;5029211;28;20637;-64
2021/12/13 02:11:51;;;;;;;3.60;2.27;;;6.80;99.90;;;6.93;98.01;101809.50;5028430;28;20656;-64
2021/12/13 02:14:25;;;;;;;2.70;2.30;;;6.70;99.90;;;6.90;97.49;101803.56;5028314;28;20707;-64
2021/12/13 02:17:11;;;;;;;3.30;2.57;;;6.70;99.90;;;6.84;97.62;101799.44;5028794;28;20628;-64
2021/12/13 02:19:44;;;;;;;2.40;2.20;;;6.70;99.90;;;6.85;98.06;101818.47;5021758;28;20644;-64
2021/12/13 02:22:44;;;;;;;3.53;2.50;;;6.70;99.90;;;6.85;97.62;101821.91;5030102;28;20643;-64
2021/12/13 02:25:13;;;;;;;3.17;2.87;;;6.70;99.90;;;6.87;98.24;101827.03;5028205;28;21168;-64
2021/12/13 02:27:47;;;;;;;3.00;2.70;;;6.70;99.90;;;6.90;98.20;101824.31;5030405;28;20620;-64
2021/12/13 02:30:23;;;;;;;5.07;2.80;;;6.70;99.90;;;6.97;97.31;101820.59;5027528;28;20670;-64
2021/12/13 02:32:51;;;;;;;3.80;2.90;;;6.90;99.90;;;6.97;97.36;101828.38;5021940;28;20676;-64
2021/12/13 02:35:26;;;;;;;3.40;3.10;;;6.80;99.90;;;6.94;97.98;101824.13;5024117;28;20651;-64
2021/12/13 02:37:53;;;;;;;3.50;3.20;;;6.80;99.90;;;6.96;97.62;101824.09;5023211;28;20631;-64
2021/12/13 02:40:21;;;;;;;5.40;3.40;;;6.80;99.90;;;6.99;98.16;101830.00;5033835;28;21133;-64
2021/12/13 02:42:50;;;;;;;3.23;2.70;;;6.80;99.90;;;7.01;97.99;101823.00;5032378;28;20651;-63
2021/12/13 02:45:34;;;;;;;5.00;3.10;;;6.80;99.90;;;7.04;97.89;101817.72;5033082;28;20708;-64
2021/12/13 02:48:26;;;;;;;4.53;3.07;;;6.90;99.90;;;7.05;97.56;101819.38;5015981;28;21014;-63
2021/12/13 02:51:14;;;;;;;2.80;2.60;;;6.90;99.90;;;7.08;97.34;101821.03;5031990;28;20666;-63
2021/12/13 02:53:46;;;;;;;6.73;2.60;;;6.90;99.90;;;7.11;96.47;101814.88;5032695;28;20664;-64
2021/12/13 02:56:17;;;;;;;10.43;2.40;;;7.00;99.90;;;7.04;96.81;101815.13;5031474;28;20982;-64
2021/12/13 02:58:47;;;;;;;2.80;2.60;;;6.90;99.90;;;7.06;96.02;101820.25;5032529;28;21231;-64
2021/12/13 03:01:34;;;;;;;3.33;2.40;;;6.90;99.90;;;6.99;97.13;101817.03;5032801;28;21194;-64
2021/12/13 03:04:10;;;;;;;3.90;2.50;;;6.80;99.90;;;6.99;97.00;101813.59;5007283;28;20698;-64
2021/12/13 03:06:55;;;;;;;4.13;2.83;;;6.80;99.90;;;6.98;96.81;101822.28;5031614;28;20643;-63
2021/12/13 03:09:27;;;;;;;2.10;1.90;;;6.80;99.90;;;6.99;97.73;101814.44;5032504;28;20624;-64
2021/12/13 03:11:57;;;;;;;5.93;2.57;;;6.80;99.90;;;6.96;97.71;101813.72;5013944;28;20656;-64
2021/12/13 03:14:38;;;;;;;5.60;3.10;;;6.80;99.90;;;6.95;98.19;101814.59;5033102;28;20604;-64
2021/12/13 03:17:20;;;;;;;4.97;2.50;;;6.80;99.90;;;6.93;98.07;101824.19;5032757;28;20655;-64
2021/12/13 03:20:19;;;;;;;2.53;2.23;;;6.70;99.90;;;6.96;97.93;101816.31;5032187;28;20600;-64
2021/12/13 03:23:07;;;;;;;3.03;2.80;;;6.80;99.90;;;6.92;97.56;101818.16;5007031;28;20683;-64
2021/12/13 03:26:08;;;;;;;3.53;2.77;;;6.80;99.90;;;6.93;97.42;101819.00;4995705;28;20623;-64
2021/12/13 03:29:08;;;;;;;6.17;2.90;;;6.70;99.90;;;6.91;97.78;101819.09;5014980;28;20636;-64
2021/12/13 03:31:58;;;;;;;3.60;2.77;;;6.70;99.90;;;6.92;97.37;101827.72;5032251;28;20751;-64
2021/12/13 03:34:36;;;;;;;3.87;3.00;;;6.70;99.90;;;6.94;98.43;101824.13;5023351;28;20660;-64
2021/12/13 03:37:21;;;;;;;5.63;2.93;;;6.80;99.90;;;6.95;97.19;101814.59;5032543;28;21187;-64
2021/12/13 03:39:54;;;;;;;2.50;2.40;;;6.80;99.90;;;6.94;97.80;101815.53;5032217;28;20703;-64
2021/12/13 03:42:47;;;;;;;4.10;2.27;;;6.80;99.90;;;6.93;97.38;101803.44;5031410;28;20636;-63
2021/12/13 03:45:28;;;;;;;3.33;2.73;;;6.80;99.90;;;6.95;98.41;101802.50;5031738;28;20640;-64
2021/12/13 03:47:58;;;;;;;2.03;1.93;;;6.80;99.90;;;6.97;98.03;101820.59;5024850;28;20660;-64
2021/12/13 03:50:52;;;;;;;4.00;2.77;;;6.80;99.90;;;6.93;98.03;101812.09;5031510;28;20660;-64
2021/12/13 03:53:24;;;;;;;3.10;2.27;;;6.80;99.90;;;6.96;97.93;101814.53;5033134;28;20726;-64
2021/12/13 03:56:02;;;;;;;2.30;2.10;;;6.80;99.90;;;6.96;97.54;101813.72;5013424;28;20635;-64
2021/12/13 03:58:34;;;;;;;2.73;2.50;;;6.80;99.90;;;6.96;97.89;101817.13;5033075;28;21139;-64
2021/12/13 04:01:33;;;;;;;3.20;2.70;;;6.80;99.90;;;6.92;98.78;101812.16;5012555;28;20655;-64
2021/12/13 04:04:04;;;;;;;3.70;2.43;;;6.70;99.90;;;6.91;98.34;101813.03;5014905;28;20631;-64
2021/12/13 04:06:31;;;;;;;2.60;2.40;;;6.80;99.90;;;6.87;98.84;101819.25;5030806;28;20628;-64
2021/12/13 04:09:00;;;;;;;3.30;2.37;;;6.70;99.90;;;6.87;98.67;101824.44;5014760;28;20631;-64
2021/12/13 04:11:28;;;;;;;3.50;2.60;;;6.70;99.90;;;6.89;97.86;101814.84;5013310;28;20656;-64
2021/12/13 04:14:08;;;;;;;3.50;2.07;;;6.70;99.90;;;6.86;98.45;101813.22;5015120;28;20668;-65
2021/12/13 04:16:50;;;;;;;5.70;3.23;;;6.70;99.90;;;6.82;98.38;101810.78;5030979;28;20636;-65
2021/12/13 04:19:22;;;;;;;3.60;2.70;;;6.60;99.90;;;6.83;98.88;101818.53;5030570;28;21006;-65
2021/12/13 04:22:01;;;;;;;2.63;2.43;;;6.60;99.90;;;6.88;99.19;101820.94;5031125;28;21007;-65
2021/12/13 04:24:39;;;;;;;3.60;2.73;;;6.70;99.90;;;6.88;98.72;101816.59;5031335;28;20636;-65
2021/12/13 04:27:16;;;;;;;2.90;2.67;;;6.70;99.90;;;6.93;98.70;101816.41;5030714;28;20641;-64
2021/12/13 04:29:46;;;;;;;4.40;2.87;;;6.80;99.90;;;6.92;98.07;101818.16;5030914;28;21016;-65
2021/12/13 04:32:34;;;;;;;4.20;3.27;;;6.80;99.90;;;6.90;98.43;101812.19;5030593;28;21253;-64
2021/12/13 04:35:09;;;;;;;4.73;3.13;;;6.70;99.90;;;6.84;99.19;101816.75;4995516;28;20647;-64
2021/12/13 04:37:47;;;;;;;6.07;3.10;;;6.70;99.90;;;6.85;98.46;101818.47;5016386;28;20636;-64
2021/12/13 04:40:26;;;;;;;4.80;3.27;;;6.70;99.90;;;6.90;98.63;101825.16;5010010;28;20624;-63
2021/12/13 04:43:09;;;;;;;3.10;2.73;;;6.80;99.90;;;6.87;99.48;101829.63;5000485;28;21041;-64
2021/12/13 04:45:42;;;;;;;2.63;2.43;;;6.70;99.90;;;6.89;99.67;101828.66;5031159;28;20984;-64
2021/12/13 04:48:15;;;;;;;3.60;2.40;;;6.80;99.90;;;6.90;99.24;101826.91;5030537;28;20643;-64
2021/12/13 04:50:51;;;;;;;3.87;2.73;;;6.80;99.90;;;6.92;99.03;101830.31;5032089;28;20619;-64
2021/12/13 04:53:27;;;;;;;3.77;2.90;;;6.80;99.90;;;6.91;98.37;101831.19;5012776;28;20670;-65
2021/12/13 04:55:58;;;;;;;3.07;2.77;;;6.70;99.90;;;6.86;99.32;101831.38;5029762;28;20628;-65
2021/12/13 04:58:27;;;;;;;2.83;2.50;;;6.70;99.90;;;6.79;99.35;101832.50;5012381;28;20990;-64
2021/12/13 05:00:59;;;;;;;3.80;2.90;;;6.70;99.90;;;6.84;99.84;101829.72;5027501;28;20749;-64
2021/12/13 05:03:35;;;;;;;2.77;2.10;;;6.70;99.90;;;6.87;99.40;101837.41;5009376;28;20673;-65
2021/12/13 05:06:21;;;;;;;3.50;2.50;;;6.70;99.90;;;6.85;99.73;101834.03;5005046;28;20659;-64
2021/12/13 05:08:56;;;;;;;3.37;2.97;;;6.60;99.90;;;6.79;100.00;101839.44;5029954;28;20636;-64
2021/12/13 05:11:33;;;;;;;2.80;2.53;;;6.60;99.90;;;6.78;100.00;101835.16;5030072;28;20767;-64
2021/12/13 05:14:01;;;;;;;7.50;2.90;;;6.60;99.90;;;6.77;99.78;101839.50;5029604;28;20672;-64
2021/12/13 05:16:53;;;;;;;2.07;1.97;;;6.60;99.90;;;6.79;100.00;101837.69;5028311;28;21003;-65
2021/12/13 05:19:36;;;;;;;5.70;3.47;;;6.60;99.90;;;6.82;100.00;101847.09;5013267;28;20601;-64
2021/12/13 05:22:08;;;;;;;3.00;2.70;;;6.70;99.90;;;6.83;100.00;101847.06;5028480;28;20659;-65
2021/12/13 05:25:01;;;;;;;3.60;3.20;;;6.70;99.90;;;6.88;99.85;101850.31;5027269;28;20637;-65
2021/12/13 05:27:36;;;;;;;4.40;3.30;;;6.70;99.90;;;6.89;99.60;101844.25;5026808;28;21000;-65
2021/12/13 05:30:20;;;;;;;4.80;3.53;;;6.70;99.90;;;6.93;99.63;101844.97;5021866;28;20638;-64
2021/12/13 05:32:57;;;;;;;3.33;3.00;;;6.70;99.90;;;6.98;100.00;101849.06;5024503;28;20673;-63
2021/12/13 05:35:33;;;;;;;2.83;2.60;;;6.80;99.90;;;6.99;99.33;101852.50;5027165;28;21386;-64
2021/12/13 05:38:10;;;;;;;5.13;3.70;;;6.80;99.90;;;7.01;99.56;101854.16;5010726;28;20624;-64
2021/12/13 05:40:44;;;;;;;4.13;3.17;;;6.90;99.90;;;7.04;99.82;101850.59;5029867;28;20612;-64
2021/12/13 05:43:37;;;;;;;3.27;2.70;;;6.90;99.90;;;6.99;98.93;101852.50;5011931;28;21202;-65
2021/12/13 05:46:13;;;;;;;3.30;2.80;;;6.90;99.90;;;7.02;98.48;101857.59;5029780;28;20613;-65
2021/12/13 05:48:47;;;;;;;6.53;3.60;;;6.80;99.90;;;7.03;99.23;101869.66;5028594;28;20735;-66
2021/12/13 05:51:27;;;;;;;4.97;3.60;;;6.80;99.90;;;7.04;98.52;101868.75;5030839;28;20991;-64
2021/12/13 05:54:05;;;;;;;3.77;3.20;;;6.90;99.90;;;7.04;99.67;101872.22;5029373;28;20660;-65
2021/12/13 05:57:09;;;;;;;6.67;3.20;;;6.90;99.90;;;7.04;98.56;101864.44;5030352;28;20604;-65
2021/12/13 05:59:50;;;;;;;3.77;2.57;;;6.90;99.90;;;7.07;98.88;101874.66;5011941;28;20639;-65
2021/12/13 06:02:56;;;;;;;8.33;3.23;;;6.90;99.90;;;7.10;98.09;101868.53;5029152;28;20652;-65
2021/12/13 06:05:36;;;;;;;4.17;3.10;;;7.00;99.90;;;7.03;98.97;101861.88;5030363;28;20689;-65
2021/12/13 06:08:10;;;;;;;5.00;3.70;;;6.90;99.90;;;7.06;98.59;101872.16;5012036;28;20609;-64
2021/12/13 06:10:46;;;;;;;11.53;3.57;;;6.90;99.90;;;7.01;99.21;101874.06;5030800;28;20627;-64
2021/12/13 06:13:42;;;;;;;3.77;2.60;;;6.80;99.90;;;6.99;98.47;101875.88;5032662;28;20682;-65
2021/12/13 06:16:24;;;;;;;3.87;3.17;;;6.80;99.90;;;6.94;99.13;101872.63;5008049;28;20635;-65
2021/12/13 06:18:57;;;;;;;4.67;3.00;;;6.80;99.90;;;6.95;99.26;101874.28;5032957;28;21183;-65
2021/12/13 06:21:56;;;;;;;3.17;2.40;;;6.70;99.90;;;6.94;99.93;101875.22;5034624;28;20636;-64
2021/12/13 06:24:40;;;;;;;4.93;2.77;;;6.70;99.90;;;6.92;99.32;101887.41;5032959;28;21182;-64
2021/12/13 06:27:30;;;;;;;5.67;2.90;;;6.70;99.90;;;6.96;99.41;101892.38;5034579;28;20620;-64
2021/12/13 06:30:10;;;;;;;4.10;3.30;;;6.80;99.90;;;6.96;99.43;101883.78;5032627;28;20636;-65
2021/12/13 06:32:45;;;;;;;4.40;3.87;;;6.80;99.90;;;6.96;99.90;101884.59;5031934;28;20663;-64
2021/12/13 06:35:36;;;;;;;4.37;3.53;;;6.80;99.90;;;6.98;100.00;101890.56;5032653;28;20624;-64
2021/12/13 06:38:36;;;;;;;4.87;3.20;;;6.80;99.90;;;7.02;100.00;101891.34;5033348;28;21199;-64
2021/12/13 06:41:06;;;;;;;3.63;2.80;;;6.80;99.90;;;7.05;100.00;101893.78;5034385;28;20643;-64
2021/12/13 06:44:02;;;;;;;4.37;3.70;;;6.90;99.90;;;7.10;100.00;101891.88;5031934;28;20720;-65
2021/12/13 06:46:33;;;;;;;4.13;3.30;;;6.90;99.90;;;7.14;99.10;101888.25;5032376;28;21078;-65
2021/12/13 06:49:19;;;;;;;3.97;2.97;;;7.00;99.90;;;7.15;99.62;101889.13;5015266;28;20623;-64
2021/12/13 06:52:00;;;;;;;5.20;3.00;;;7.00;99.90;;;7.12;98.69;101892.66;5032559;28;21250;-64
2021/12/13 06:54:39;;;;;;;5.60;3.23;;;6.90;99.90;;;7.17;99.17;101898.53;5033119;28;20695;-65
2021/12/13 06:57:09;;;;;;;3.97;3.60;;;7.00;99.90;;;7.18;98.47;101899.38;5025380;28;20648;-65
2021/12/13 07:00:13;;;;;;;6.03;3.70;;;7.00;99.90;;;7.14;98.38;101897.78;5029903;28;20632;-64
2021/12/13 07:02:49;;;;;;;4.17;3.17;;;6.90;99.90;;;7.15;99.22;101889.97;5030969;28;21185;-65
2021/12/13 07:05:26;;;;;;;3.17;2.83;;;7.00;99.90;;;7.16;99.13;101899.44;5032212;28;20652;-64
2021/12/13 07:08:24;;;;;;;3.33;2.90;;;7.00;99.90;;;7.18;98.58;101896.78;5031416;28;20632;-64
2021/12/13 07:10:51;;;;;;;3.57;3.10;;;7.00;99.90;;;7.14;99.50;101895.19;5032332;28;20655;-64
2021/12/13 07:14:06;;;;;;;4.60;3.70;;;6.90;99.90;;;7.13;99.56;101893.53;5032493;28;20666;-65
2021/12/13 07:16:38;;;;;;;2.83;2.63;;;6.90;99.90;;;7.12;99.63;101900.47;5012420;28;20728;-65
2021/12/13 07:19:23;;;;;;;8.57;3.93;;;6.90;99.90;;;7.12;99.09;101900.47;5020532;28;20613;-64
2021/12/13 07:22:03;;;;;;;4.23;3.33;;;6.90;99.90;;;7.14;99.11;101901.25;5013194;28;20629;-64
2021/12/13 07:24:42;;;;;;;3.50;3.20;;;7.00;99.90;;;7.18;99.69;101908.00;5014890;28;20744;-64
2021/12/13 07:27:16;;;;;;;4.23;2.93;;;7.00;99.90;;;7.23;99.81;101903.50;5014769;28;20613;-64
2021/12/13 07:30:04;;;;;;;3.03;2.73;;;7.10;99.90;;;7.25;99.21;101906.88;5023285;28;20674;-63
2021/12/13 07:32:58;;;;;;;3.00;2.70;;;7.10;99.90;;;7.28;98.51;101909.38;5024232;28;20678;-64
2021/12/13 07:35:40;;;;;;;2.83;2.57;;;7.10;99.90;;;7.29;99.47;101910.19;5026367;28;20624;-64
2021/12/13 07:38:26;;;;;;;3.13;2.83;;;7.10;99.90;;;7.31;98.95;101914.44;5019342;28;20643;-65
2021/12/13 07:40:58;;;;;;;3.27;2.90;;;7.10;99.90;;;7.33;99.07;101909.16;5032542;28;21010;-65
2021/12/13 07:43:34;;;;;;;5.70;2.53;;;7.20;99.90;;;7.34;99.51;101914.31;5031120;28;20644;-65
2021/12/13 07:46:11;;;;;;;4.70;3.00;;;7.20;99.90;;;7.34;98.89;101921.25;5032056;28;20622;-64
2021/12/13 07:48:43;;;;;;;3.80;2.90;;;7.20;99.90;;;7.35;98.47;101916.00;5030046;28;20640;-64
2021/12/13 07:51:22;;;;;;;5.57;3.10;;;7.20;99.90;;;7.38;97.98;101915.91;5030851;28;20652;-64
2021/12/13 07:53:59;;;;;;;4.30;3.10;;;7.20;99.90;;;7.42;97.75;101922.66;5031046;28;21247;-64
2021/12/13 07:56:43;;;;;;;4.93;3.40;;;7.30;99.90;;;7.44;98.46;101920.84;5027476;28;20637;-64
2021/12/13 07:59:18;;;;;;;4.00;2.90;;;7.30;99.90;;;7.45;97.56;101925.13;5014215;28;20609;-64
2021/12/13 08:02:08;;;;;;;4.03;3.17;;;7.30;99.90;;;7.47;97.55;101925.94;5015123;28;20662;-64
2021/12/13 08:04:41;;;;;;;8.30;3.73;;;7.40;99.90;;;7.52;97.94;101924.00;5011896;28;20679;-64
2021/12/13 08:07:25;;;;;;;3.70;3.40;;;7.40;99.90;;;7.52;97.38;101929.19;5029547;28;20608;-65
2021/12/13 08:09:59;;;;;;;6.73;3.80;;;7.40;99.90;;;7.47;98.07;101931.13;5025328;28;20627;-65
2021/12/13 08:12:37;;;;;;;5.07;3.60;;;7.40;99.90;;;7.53;97.78;101936.09;5030956;28;20644;-65
2021/12/13 08:15:28;;;;;;;8.40;4.00;;;7.40;99.90;;;7.56;97.29;101930.75;5031126;28;20660;-65
2021/12/13 08:18:01;;;;;;;3.97;3.10;;;7.40;99.90;;;7.62;97.40;101946.09;5031025;28;21203;-64
2021/12/13 08:20:51;;;;;;;5.27;3.50;;;7.50;99.90;;;7.70;97.79;101946.66;5029684;28;20664;-65
2021/12/13 08:23:45;;;;;;;5.23;3.30;;;7.60;99.90;;;7.72;96.96;101936.22;5029421;28;21219;-64
2021/12/13 08:26:26;;;;;;;3.30;2.77;;;7.60;99.90;;;7.74;96.87;101934.38;5024965;28;20637;-65
2021/12/13 08:28:55;;;;;;;4.53;3.10;;;7.60;99.90;;;7.77;97.02;101935.09;5029834;28;20638;-65
2021/12/13 08:31:30;;;;;;;2.73;2.53;;;7.70;99.90;;;7.84;96.08;101941.75;5029633;28;20691;-65
2021/12/13 08:34:11;;;;;;;3.27;2.43;;;7.70;99.90;;;7.92;96.07;101932.81;5030888;28;20656;-64
2021/12/13 08:36:47;;;;;;;4.00;3.27;;;7.80;99.90;;;8.02;96.17;101929.78;5009113;28;21242;-65
2021/12/13 08:39:22;;;;;;;3.27;2.97;;;8.00;99.90;;;8.14;94.89;101933.63;5027820;28;20635;-67
2021/12/13 08:42:25;;;;;;;15.67;3.47;;;8.10;99.90;;;8.28;93.96;101933.94;5023645;28;20996;-64
2021/12/13 08:45:16;;;;;;;5.40;3.17;;;8.20;99.90;;;8.27;93.86;101934.84;5030352;28;20628;-64
2021/12/13 08:47:52;;;;;;;4.10;3.10;;;8.20;99.90;;;8.19;93.70;101939.47;5025121;28;20652;-64
2021/12/13 08:50:32;;;;;;;5.93;3.40;;;8.10;99.90;;;8.25;93.08;101941.81;5024968;28;21218;-64
2021/12/13 08:53:34;;;;;;;4.20;3.23;;;8.10;99.90;;;8.21;93.84;101948.06;5029384;28;20639;-63
2021/12/13 08:56:20;;;;;;;4.93;3.23;;;8.10;99.90;;;8.10;94.26;101950.25;5019011;28;22118;-64
2021/12/13 08:59:25;;;;;;;4.07;2.93;;;8.00;99.90;;;8.02;95.16;101947.13;5028358;28;21025;-62
2021/12/13 09:02:06;;;;;;;3.10;2.40;;;7.90;99.90;;;8.00;95.06;101947.19;5020363;28;21021;-65
2021/12/13 09:04:42;;;;;;;5.70;3.73;;;7.90;99.90;;;7.91;96.11;101949.31;5028770;28;20617;-64
2021/12/13 09:07:13;;;;;;;3.77;2.90;;;7.80;99.90;;;7.89;95.63;101945.94;5010317;28;20613;-65
2021/12/13 09:09:46;;;;;;;7.23;3.60;;;7.80;99.90;;;7.85;95.92;101947.81;5011059;28;20999;-65
2021/12/13 09:12:27;;;;;;;2.27;2.07;;;7.70;99.90;;;7.94;96.48;101950.06;5027973;28;20666;-65
2021/12/13 09:14:56;;;;;;;4.57;3.50;;;7.80;99.90;;;7.90;95.94;101952.81;5025239;28;20660;-64
2021/12/13 09:17:31;;;;;;;4.87;3.73;;;7.80;99.90;;;7.84;96.93;101949.56;5030100;28;20635;-65
2021/12/13 09:20:13;;;;;;;1.37;1.27;;;7.70;99.90;;;7.91;96.65;101957.97;5013089;28;21232;-64
2021/12/13 09:22:55;;;;;;;9.07;4.97;;;7.80;99.90;;;7.97;95.98;101956.84;5010766;28;20781;-64
2021/12/13 09:25:50;;;;;;;9.60;3.43;;;7.80;99.90;;;7.96;95.73;101961.22;5016981;28;20209;-61
2021/12/13 09:28:24;;;;;;;8.33;4.13;;;7.80;99.90;;;7.92;96.50;101951.00;5024800;28;20638;-64
2021/12/13 09:31:06;;;;;;;5.87;3.67;;;7.80;99.90;;;8.00;96.12;101961.94;5029086;28;20648;-63
2021/12/13 09:33:59;;;;;;;6.13;3.90;;;7.80;99.90;;;8.10;96.21;101965.84;5031120;28;20711;-63
2021/12/13 09:36:38;;;;;;;7.50;3.33;;;8.00;99.90;;;8.07;96.24;101966.00;5018944;28;20983;-64
2021/12/13 09:39:17;;;;;;;11.43;4.77;;;8.00;99.90;;;8.14;95.76;101968.28;5026048;28;20637;-65
2021/12/13 09:41:47;;;;;;;30.47;15.50;;;8.00;99.90;;;8.14;95.49;101967.41;5022948;28;21058;-63
2021/12/13 09:44:34;;;;;;;16.47;8.63;;;8.00;99.90;;;8.21;95.88;101961.91;5022411;28;20653;-65
2021/12/13 09:47:08;;;;;;;7.90;4.50;;;8.10;99.90;;;8.32;95.37;101969.31;5030642;28;20984;-64
2021/12/13 09:49:49;;;;;;;8.17;4.20;;;8.20;99.90;;;8.32;94.37;101974.50;5033631;28;20631;-65
2021/12/13 09:52:49;;;;;;;7.07;4.67;;;8.20;99.90;;;8.32;94.61;101970.16;5035134;28;21264;-63
2021/12/13 09:55:24;;;;;;;3.90;3.37;;;8.20;99.90;;;8.39;93.78;101966.38;5031767;28;20751;-64
2021/12/13 09:58:18;;;;;;;4.50;3.37;;;8.30;99.90;;;8.36;93.18;101965.66;5027486;28;20619;-64
2021/12/13 10:00:57;;;;;;;3.73;1.90;;;8.30;99.90;;;8.38;92.71;101963.84;5032901;28;20628;-64
2021/12/13 10:03:51;;;;;;;6.80;4.10;;;8.20;99.90;;;8.38;93.25;101958.66;5017664;28;20607;-64
2021/12/13 10:06:26;;;;;;;4.87;3.60;;;8.20;99.90;;;8.37;93.66;101951.75;5032544;28;21398;-63
2021/12/13 10:09:07;;;;;;;4.80;3.20;;;8.20;99.90;;;8.26;93.76;101951.38;5027256;28;21421;-65
2021/12/13 10:11:45;;;;;;;5.50;3.70;;;8.20;99.90;;;8.37;93.56;101952.59;5031852;28;21034;-64
2021/12/13 10:14:16;;;;;;;5.60;3.73;;;8.20;99.90;;;8.47;93.40;101943.50;5032515;28;20679;-65
2021/12/13 10:16:48;;;;;;;8.13;3.87;;;8.40;99.90;;;8.59;92.79;101947.34;5032981;28;20707;-64
2021/12/13 10:19:35;;;;;;;9.60;4.63;;;8.50;99.90;;;8.54;93.02;101941.47;5016782;28;20638;-64
2021/12/13 10:22:08;;;;;;;4.37;3.70;;;8.40;99.90;;;8.53;93.04;101938.03;5034673;28;20727;-65
2021/12/13 10:24:57;;;;;;;5.73;4.00;;;8.40;99.90;;;8.64;92.69;101940.19;5012580;28;20614;-65
2021/12/13 10:27:25;;;;;;;6.30;3.87;;;8.50;99.90;;;8.71;92.48;101936.38;4996714;28;20633;-65
2021/12/13 10:29:57;;;;;;;6.07;4.23;;;8.70;99.90;;;8.86;91.90;101938.31;5014766;28;20990;-66
2021/12/13 10:32:34;;;;;;;6.40;4.30;;;8.80;99.90;;;8.99;91.57;101931.66;5015585;28;20722;-65
2021/12/13 10:35:18;;;;;;;8.70;4.30;;;9.00;99.90;;;9.14;90.93;101927.50;5013759;28;21029;-66
2021/12/13 10:37:59;;;;;;;9.77;5.00;;;9.20;99.90;;;9.19;90.01;101922.94;5032985;28;20636;-65
2021/12/13 10:40:43;;;;;;;5.20;3.87;;;9.20;99.90;;;9.29;89.70;101930.28;5033280;28;21207;-65
2021/12/13 10:43:28;;;;;;;6.53;4.73;;;9.30;99.90;;;9.39;89.47;101938.53;5034145;28;20644;-65
2021/12/13 10:46:07;;;;;;;6.10;4.47;;;9.40;99.90;;;9.50;88.73;101935.41;5029716;28;20635;-66
2021/12/13 10:48:44;;;;;;;7.57;4.30;;;9.60;99.90;;;9.57;88.26;101928.97;4997890;28;21236;-65
2021/12/13 10:51:27;;;;;;;6.03;4.10;;;9.60;99.90;;;9.60;87.99;101924.47;5027857;28;20667;-65
2021/12/13 10:54:00;;;;;;;7.50;4.77;;;9.70;99.90;;;9.56;87.15;101927.31;5009155;28;20616;-65
2021/12/13 10:56:42;;;;;;;7.40;4.60;;;9.60;99.90;;;9.49;87.31;101931.97;5030288;28;20622;-65
2021/12/13 10:59:18;;;;;;;7.60;4.53;;;9.40;99.90;;;9.51;86.80;101932.72;5026851;28;20624;-64
2021/12/13 11:01:53;;;;;;;8.70;4.77;;;9.40;99.90;;;9.52;87.64;101937.00;5015969;28;20639;-65
2021/12/13 11:04:55;;;;;;;7.50;5.17;;;9.40;99.90;;;9.53;87.86;101932.66;5027510;28;20616;-65
2021/12/13 11:07:23;;;;;;;8.67;5.17;;;9.40;99.90;;;9.57;87.75;101939.41;5026604;28;20634;-65
2021/12/13 11:09:54;;;;;;;7.57;4.10;;;9.50;99.90;;;9.61;87.73;101943.53;5033705;28;20743;-65
2021/12/13 11:12:31;;;;;;;8.17;5.00;;;9.60;99.90;;;9.57;87.42;101929.81;5031522;28;20667;-66
2021/12/13 11:15:08;;;;;;;7.37;4.80;;;9.50;99.90;;;9.56;87.23;101932.50;5032825;28;20666;-65
2021/12/13 11:17:35;;;;;;;5.20;4.23;;;9.50;99.90;;;9.54;87.37;101936.97;5032015;28;20630;-65
2021/12/13 11:20:33;;;;;;;5.63;4.17;;;9.40;99.90;;;9.52;87.83;101928.38;5029811;28;20713;-65
2021/12/13 11:23:00;;;;;;;7.63;4.43;;;9.40;99.90;;;9.59;87.55;101937.56;5025900;28;21195;-62
2021/12/13 11:25:57;;;;;;;6.27;4.80;;;9.50;99.90;;;9.55;87.52;101925.59;5014066;28;20620;-65
2021/12/13 11:28:29;;;;;;;6.57;4.63;;;9.50;99.90;;;9.56;87.48;101922.91;5015818;28;20616;-65